sensor_id;sensor_type;location;lat;lon;timestamp;temperature;humidity
38860;DHT22;24609;48.316;16.174;2022-10-22T00:02:04;9.20;99.90
38860;DHT22;24609;48.316;16.174;2022-10-22T00:04:32;9.20;99.90
38860;DHT22;24609;48.316;16.174;2022-10-22T00:06:58;9.30;99.90
38860;DHT22;24609;48.316;16.174;2022-10-22T00:09:24;9.40;99.90
38860;DHT22;24609;48.316;16.174;2022-10-22T00:11:50;9.40;99.90
38860;DHT22;24609;48.316;16.174;2022-10-22T00:14:16;9.40;99.90
38860;DHT22;24609;48.316;16.174;2022-10-22T00:16:41;9.40;99.90
38860;DHT22;24609;48.316;16.174;2022-10-22T00:19:07;9.40;99.90
38860;DHT22;24609;48.316;16.174;2022-10-22T00:21:34;9.50;99.90
38860;DHT22;24609;48.316;16.174;2022-10-22T00:24:00;9.60;99.90
38860;DHT22;24609;48.316;16.174;2022-10-22T00:26:26;9.60;99.90
38860;DHT22;24609;48.316;16.174;2022-10-22T00:28:52;9.70;99.90
38860;DHT22;24609;48.316;16.174;2022-10-22T00:31:18;9.70;99.90
38860;DHT22;24609;48.316;16.174;2022-10-22T00:33:45;9.70;99.90
38860;DHT22;24609;48.316;16.174;2022-10-22T00:36:12;9.60;99.90
38860;DHT22;24609;48.316;16.174;2022-10-22T00:38:39;9.60;99.90
38860;DHT22;24609;48.316;16.174;2022-10-22T00:41:05;9.60;99.90
38860;DHT22;24609;48.316;16.174;2022-10-22T00:43:31;9.50;99.90
38860;DHT22;24609;48.316;16.174;2022-10-22T00:45:56;9.50;99.90
38860;DHT22;24609;48.316;16.174;2022-10-22T00:48:26;9.40;99.90
38860;DHT22;24609;48.316;16.174;2022-10-22T00:50:59;9.30;99.90
38860;DHT22;24609;48.316;16.174;2022-10-22T00:53:34;9.20;99.90
38860;DHT22;24609;48.316;16.174;2022-10-22T00:56:01;9.10;99.90
38860;DHT22;24609;48.316;16.174;2022-10-22T00:58:28;9.00;99.90
38860;DHT22;24609;48.316;16.174;2022-10-22T01:00:56;8.90;99.90
38860;DHT22;24609;48.316;16.174;2022-10-22T01:03:22;8.80;99.90
38860;DHT22;24609;48.316;16.174;2022-10-22T01:05:59;8.80;99.90
38860;DHT22;24609;48.316;16.174;2022-10-22T01:16:50;8.70;99.90
38860;DHT22;24609;48.316;16.174;2022-10-22T01:22:14;8.80;99.90
38860;DHT22;24609;48.316;16.174;2022-10-22T01:24:52;8.70;99.90
38860;DHT22;24609;48.316;16.174;2022-10-22T01:27:25;8.70;99.90
38860;DHT22;24609;48.316;16.174;2022-10-22T01:30:03;8.60;99.90
38860;DHT22;24609;48.316;16.174;2022-10-22T01:32:55;8.60;99.90
38860;DHT22;24609;48.316;16.174;2022-10-22T01:35:23;8.60;99.90
38860;DHT22;24609;48.316;16.174;2022-10-22T01:37:57;8.50;99.90
38860;DHT22;24609;48.316;16.174;2022-10-22T01:40:25;8.50;99.90
38860;DHT22;24609;48.316;16.174;2022-10-22T01:43:00;8.50;99.90
38860;DHT22;24609;48.316;16.174;2022-10-22T01:45:28;8.40;99.90
38860;DHT22;24609;48.316;16.174;2022-10-22T01:48:07;8.20;99.90
38860;DHT22;24609;48.316;16.174;2022-10-22T01:50:39;8.20;99.90
38860;DHT22;24609;48.316;16.174;2022-10-22T01:53:38;8.10;99.90
38860;DHT22;24609;48.316;16.174;2022-10-22T02:02:03;8.00;99.90
38860;DHT22;24609;48.316;16.174;2022-10-22T02:04:42;8.00;99.90
38860;DHT22;24609;48.316;16.174;2022-10-22T02:07:12;7.90;99.90
38860;DHT22;24609;48.316;16.174;2022-10-22T02:09:40;7.90;99.90
38860;DHT22;24609;48.316;16.174;2022-10-22T02:12:07;7.90;99.90
38860;DHT22;24609;48.316;16.174;2022-10-22T02:14:36;7.90;99.90
38860;DHT22;24609;48.316;16.174;2022-10-22T02:17:07;7.80;99.90
38860;DHT22;24609;48.316;16.174;2022-10-22T02:22:04;7.50;99.90
38860;DHT22;24609;48.316;16.174;2022-10-22T02:24:30;7.40;99.90
38860;DHT22;24609;48.316;16.174;2022-10-22T02:30:01;7.40;99.90
38860;DHT22;24609;48.316;16.174;2022-10-22T02:32:32;7.50;99.90
38860;DHT22;24609;48.316;16.174;2022-10-22T02:34:59;7.60;99.90
38860;DHT22;24609;48.316;16.174;2022-10-22T02:37:26;7.70;99.90
38860;DHT22;24609;48.316;16.174;2022-10-22T02:39:54;7.70;99.90
38860;DHT22;24609;48.316;16.174;2022-10-22T02:42:22;7.80;99.90
38860;DHT22;24609;48.316;16.174;2022-10-22T02:44:48;7.80;99.90
38860;DHT22;24609;48.316;16.174;2022-10-22T02:47:13;7.70;99.90
38860;DHT22;24609;48.316;16.174;2022-10-22T02:49:39;7.70;99.90
38860;DHT22;24609;48.316;16.174;2022-10-22T02:52:04;7.60;99.90
38860;DHT22;24609;48.316;16.174;2022-10-22T02:54:30;7.60;99.90
38860;DHT22;24609;48.316;16.174;2022-10-22T02:56:56;7.50;99.90
38860;DHT22;24609;48.316;16.174;2022-10-22T02:59:21;7.50;99.90
38860;DHT22;24609;48.316;16.174;2022-10-22T03:01:47;7.40;99.90
38860;DHT22;24609;48.316;16.174;2022-10-22T03:04:16;7.40;99.90
38860;DHT22;24609;48.316;16.174;2022-10-22T03:06:41;7.40;99.90
38860;DHT22;24609;48.316;16.174;2022-10-22T03:09:08;7.50;99.90
38860;DHT22;24609;48.316;16.174;2022-10-22T03:11:34;7.60;99.90
38860;DHT22;24609;48.316;16.174;2022-10-22T03:14:00;7.70;99.90
38860;DHT22;24609;48.316;16.174;2022-10-22T03:16:25;7.80;99.90
38860;DHT22;24609;48.316;16.174;2022-10-22T03:18:51;7.90;99.90
38860;DHT22;24609;48.316;16.174;2022-10-22T03:21:38;7.90;99.90
38860;DHT22;24609;48.316;16.174;2022-10-22T03:24:08;7.80;99.90
38860;DHT22;24609;48.316;16.174;2022-10-22T03:26:35;7.80;99.90
38860;DHT22;24609;48.316;16.174;2022-10-22T03:29:01;7.80;99.90
38860;DHT22;24609;48.316;16.174;2022-10-22T03:31:27;7.70;99.90
38860;DHT22;24609;48.316;16.174;2022-10-22T03:33:53;7.60;99.90
38860;DHT22;24609;48.316;16.174;2022-10-22T03:36:18;7.40;99.90
38860;DHT22;24609;48.316;16.174;2022-10-22T03:38:44;7.30;99.90
38860;DHT22;24609;48.316;16.174;2022-10-22T03:41:10;7.30;99.90
38860;DHT22;24609;48.316;16.174;2022-10-22T03:43:36;7.20;99.90
38860;DHT22;24609;48.316;16.174;2022-10-22T03:46:02;7.20;99.90
38860;DHT22;24609;48.316;16.174;2022-10-22T03:48:28;7.10;99.90
38860;DHT22;24609;48.316;16.174;2022-10-22T03:50:54;7.10;99.90
38860;DHT22;24609;48.316;16.174;2022-10-22T03:53:19;7.10;99.90
38860;DHT22;24609;48.316;16.174;2022-10-22T03:55:45;7.00;99.90
38860;DHT22;24609;48.316;16.174;2022-10-22T03:58:11;6.90;99.90
38860;DHT22;24609;48.316;16.174;2022-10-22T04:00:37;6.90;99.90
38860;DHT22;24609;48.316;16.174;2022-10-22T04:03:03;6.90;99.90
38860;DHT22;24609;48.316;16.174;2022-10-22T04:05:28;6.90;99.90
38860;DHT22;24609;48.316;16.174;2022-10-22T04:07:56;7.00;99.90
38860;DHT22;24609;48.316;16.174;2022-10-22T04:10:21;7.10;99.90
38860;DHT22;24609;48.316;16.174;2022-10-22T04:12:47;7.10;99.90
38860;DHT22;24609;48.316;16.174;2022-10-22T04:15:13;7.10;99.90
38860;DHT22;24609;48.316;16.174;2022-10-22T04:17:39;7.20;99.90
38860;DHT22;24609;48.316;16.174;2022-10-22T04:20:05;7.20;99.90
38860;DHT22;24609;48.316;16.174;2022-10-22T04:22:34;7.40;99.90
38860;DHT22;24609;48.316;16.174;2022-10-22T04:25:00;7.50;99.90
38860;DHT22;24609;48.316;16.174;2022-10-22T04:27:33;7.50;99.90
38860;DHT22;24609;48.316;16.174;2022-10-22T04:29:59;7.40;99.90
38860;DHT22;24609;48.316;16.174;2022-10-22T04:32:27;7.40;99.90
38860;DHT22;24609;48.316;16.174;2022-10-22T04:34:53;7.50;99.90
38860;DHT22;24609;48.316;16.174;2022-10-22T04:37:19;7.50;99.90
38860;DHT22;24609;48.316;16.174;2022-10-22T04:39:45;7.60;99.90
38860;DHT22;24609;48.316;16.174;2022-10-22T04:42:10;7.60;99.90
38860;DHT22;24609;48.316;16.174;2022-10-22T04:44:37;7.60;99.90
38860;DHT22;24609;48.316;16.174;2022-10-22T04:47:02;7.80;99.90
38860;DHT22;24609;48.316;16.174;2022-10-22T04:49:28;7.80;99.90
38860;DHT22;24609;48.316;16.174;2022-10-22T04:51:54;7.90;99.90
38860;DHT22;24609;48.316;16.174;2022-10-22T04:54:19;7.90;99.90
38860;DHT22;24609;48.316;16.174;2022-10-22T04:56:45;8.00;99.90
38860;DHT22;24609;48.316;16.174;2022-10-22T04:59:11;8.00;99.90
38860;DHT22;24609;48.316;16.174;2022-10-22T05:01:40;7.90;99.90
38860;DHT22;24609;48.316;16.174;2022-10-22T05:04:07;7.90;99.90
38860;DHT22;24609;48.316;16.174;2022-10-22T05:06:34;7.90;99.90
38860;DHT22;24609;48.316;16.174;2022-10-22T05:09:03;7.80;99.90
38860;DHT22;24609;48.316;16.174;2022-10-22T05:11:32;7.80;99.90
38860;DHT22;24609;48.316;16.174;2022-10-22T05:14:00;7.70;99.90
38860;DHT22;24609;48.316;16.174;2022-10-22T05:16:28;7.70;99.90
38860;DHT22;24609;48.316;16.174;2022-10-22T05:18:54;7.80;99.90
38860;DHT22;24609;48.316;16.174;2022-10-22T05:21:20;7.80;99.90
38860;DHT22;24609;48.316;16.174;2022-10-22T05:23:47;7.80;99.90
38860;DHT22;24609;48.316;16.174;2022-10-22T05:26:16;7.80;99.90
38860;DHT22;24609;48.316;16.174;2022-10-22T05:28:42;7.80;99.90
38860;DHT22;24609;48.316;16.174;2022-10-22T05:31:10;7.70;99.90
38860;DHT22;24609;48.316;16.174;2022-10-22T05:33:36;7.70;99.90
38860;DHT22;24609;48.316;16.174;2022-10-22T05:36:04;7.80;99.90
38860;DHT22;24609;48.316;16.174;2022-10-22T05:38:31;7.80;99.90
38860;DHT22;24609;48.316;16.174;2022-10-22T05:41:04;7.90;99.90
38860;DHT22;24609;48.316;16.174;2022-10-22T05:43:31;7.90;99.90
38860;DHT22;24609;48.316;16.174;2022-10-22T05:46:10;8.00;99.90
38860;DHT22;24609;48.316;16.174;2022-10-22T05:48:37;8.00;99.90
38860;DHT22;24609;48.316;16.174;2022-10-22T05:51:05;8.10;99.90
38860;DHT22;24609;48.316;16.174;2022-10-22T05:53:32;8.20;99.90
38860;DHT22;24609;48.316;16.174;2022-10-22T05:56:00;8.20;99.90
38860;DHT22;24609;48.316;16.174;2022-10-22T05:58:26;8.30;99.90
38860;DHT22;24609;48.316;16.174;2022-10-22T06:00:51;8.40;99.90
38860;DHT22;24609;48.316;16.174;2022-10-22T06:03:17;8.50;99.90
38860;DHT22;24609;48.316;16.174;2022-10-22T06:05:42;8.60;99.90
38860;DHT22;24609;48.316;16.174;2022-10-22T06:08:11;8.70;99.90
38860;DHT22;24609;48.316;16.174;2022-10-22T06:10:39;8.60;99.90
38860;DHT22;24609;48.316;16.174;2022-10-22T06:13:06;8.60;99.90
38860;DHT22;24609;48.316;16.174;2022-10-22T06:15:32;8.60;99.90
38860;DHT22;24609;48.316;16.174;2022-10-22T06:17:58;8.60;99.90
38860;DHT22;24609;48.316;16.174;2022-10-22T06:20:23;8.70;99.90
38860;DHT22;24609;48.316;16.174;2022-10-22T06:22:49;8.90;99.90
38860;DHT22;24609;48.316;16.174;2022-10-22T06:25:15;8.90;99.90
38860;DHT22;24609;48.316;16.174;2022-10-22T06:27:41;9.10;99.90
38860;DHT22;24609;48.316;16.174;2022-10-22T06:30:07;9.30;99.90
38860;DHT22;24609;48.316;16.174;2022-10-22T06:32:32;9.40;99.90
38860;DHT22;24609;48.316;16.174;2022-10-22T06:34:58;9.60;99.90
38860;DHT22;24609;48.316;16.174;2022-10-22T06:37:24;9.60;99.90
38860;DHT22;24609;48.316;16.174;2022-10-22T06:39:49;9.70;99.90
38860;DHT22;24609;48.316;16.174;2022-10-22T06:42:15;9.80;99.90
38860;DHT22;24609;48.316;16.174;2022-10-22T06:44:41;10.00;99.90
38860;DHT22;24609;48.316;16.174;2022-10-22T06:47:06;10.10;99.90
38860;DHT22;24609;48.316;16.174;2022-10-22T06:49:32;10.20;99.90
38860;DHT22;24609;48.316;16.174;2022-10-22T06:51:58;10.40;99.90
38860;DHT22;24609;48.316;16.174;2022-10-22T06:54:23;10.50;99.90
38860;DHT22;24609;48.316;16.174;2022-10-22T06:56:49;10.30;99.90
38860;DHT22;24609;48.316;16.174;2022-10-22T06:59:14;10.20;99.90
38860;DHT22;24609;48.316;16.174;2022-10-22T07:01:40;10.30;99.90
38860;DHT22;24609;48.316;16.174;2022-10-22T07:04:08;10.40;99.90
38860;DHT22;24609;48.316;16.174;2022-10-22T07:06:34;10.30;99.90
38860;DHT22;24609;48.316;16.174;2022-10-22T07:09:00;10.30;99.90
38860;DHT22;24609;48.316;16.174;2022-10-22T07:11:28;10.80;99.90
38860;DHT22;24609;48.316;16.174;2022-10-22T07:13:56;10.90;99.90
38860;DHT22;24609;48.316;16.174;2022-10-22T07:16:22;10.80;99.90
38860;DHT22;24609;48.316;16.174;2022-10-22T07:18:47;10.50;99.90
38860;DHT22;24609;48.316;16.174;2022-10-22T07:21:15;10.20;99.90
38860;DHT22;24609;48.316;16.174;2022-10-22T07:23:41;10.10;99.90
38860;DHT22;24609;48.316;16.174;2022-10-22T07:26:08;10.20;99.90
38860;DHT22;24609;48.316;16.174;2022-10-22T07:28:36;10.00;99.90
38860;DHT22;24609;48.316;16.174;2022-10-22T07:31:04;10.10;99.90
38860;DHT22;24609;48.316;16.174;2022-10-22T07:33:30;10.20;99.90
38860;DHT22;24609;48.316;16.174;2022-10-22T07:35:57;10.20;99.90
38860;DHT22;24609;48.316;16.174;2022-10-22T07:38:24;10.40;99.90
38860;DHT22;24609;48.316;16.174;2022-10-22T07:40:50;10.30;99.90
38860;DHT22;24609;48.316;16.174;2022-10-22T07:43:15;10.50;99.90
38860;DHT22;24609;48.316;16.174;2022-10-22T07:45:41;10.80;99.90
38860;DHT22;24609;48.316;16.174;2022-10-22T07:48:07;11.00;99.90
38860;DHT22;24609;48.316;16.174;2022-10-22T07:50:32;10.90;99.90
38860;DHT22;24609;48.316;16.174;2022-10-22T07:52:58;10.80;99.90
38860;DHT22;24609;48.316;16.174;2022-10-22T07:55:24;10.80;99.90
38860;DHT22;24609;48.316;16.174;2022-10-22T07:57:50;10.60;99.90
38860;DHT22;24609;48.316;16.174;2022-10-22T08:00:16;10.70;99.90
38860;DHT22;24609;48.316;16.174;2022-10-22T08:02:42;10.80;99.90
38860;DHT22;24609;48.316;16.174;2022-10-22T08:05:07;10.90;99.90
38860;DHT22;24609;48.316;16.174;2022-10-22T08:07:33;11.00;99.90
38860;DHT22;24609;48.316;16.174;2022-10-22T08:09:59;11.10;99.90
38860;DHT22;24609;48.316;16.174;2022-10-22T08:12:24;11.00;99.90
38860;DHT22;24609;48.316;16.174;2022-10-22T08:14:50;10.90;99.90
38860;DHT22;24609;48.316;16.174;2022-10-22T08:17:16;10.90;99.90
38860;DHT22;24609;48.316;16.174;2022-10-22T08:19:41;10.80;99.90
38860;DHT22;24609;48.316;16.174;2022-10-22T08:22:07;10.70;99.90
38860;DHT22;24609;48.316;16.174;2022-10-22T08:24:33;10.50;99.90
38860;DHT22;24609;48.316;16.174;2022-10-22T08:26:59;10.50;99.90
38860;DHT22;24609;48.316;16.174;2022-10-22T08:29:25;10.30;99.90
38860;DHT22;24609;48.316;16.174;2022-10-22T08:31:51;10.10;99.90
38860;DHT22;24609;48.316;16.174;2022-10-22T08:34:17;10.10;99.90
38860;DHT22;24609;48.316;16.174;2022-10-22T08:36:43;10.10;99.90
38860;DHT22;24609;48.316;16.174;2022-10-22T08:39:09;10.10;99.90
38860;DHT22;24609;48.316;16.174;2022-10-22T08:49:34;10.90;99.90
38860;DHT22;24609;48.316;16.174;2022-10-22T08:52:02;10.90;99.90
38860;DHT22;24609;48.316;16.174;2022-10-22T09:00:21;11.00;99.90
38860;DHT22;24609;48.316;16.174;2022-10-22T09:03:00;10.90;99.90
38860;DHT22;24609;48.316;16.174;2022-10-22T09:08:14;11.20;99.90
38860;DHT22;24609;48.316;16.174;2022-10-22T09:13:53;11.50;99.90
38860;DHT22;24609;48.316;16.174;2022-10-22T09:24:09;11.60;99.90
38860;DHT22;24609;48.316;16.174;2022-10-22T09:26:38;11.90;99.90
38860;DHT22;24609;48.316;16.174;2022-10-22T09:29:05;12.00;99.90
38860;DHT22;24609;48.316;16.174;2022-10-22T09:31:32;12.00;99.90
38860;DHT22;24609;48.316;16.174;2022-10-22T09:33:59;11.90;99.90
38860;DHT22;24609;48.316;16.174;2022-10-22T09:36:30;11.90;99.90
38860;DHT22;24609;48.316;16.174;2022-10-22T09:38:56;12.20;99.90
38860;DHT22;24609;48.316;16.174;2022-10-22T09:41:25;12.60;99.90
38860;DHT22;24609;48.316;16.174;2022-10-22T09:43:54;12.60;99.90
38860;DHT22;24609;48.316;16.174;2022-10-22T09:46:22;12.50;99.90
38860;DHT22;24609;48.316;16.174;2022-10-22T09:48:56;12.40;99.90
38860;DHT22;24609;48.316;16.174;2022-10-22T09:54:02;12.50;99.90
38860;DHT22;24609;48.316;16.174;2022-10-22T09:56:40;12.60;99.90
38860;DHT22;24609;48.316;16.174;2022-10-22T09:59:17;12.70;99.90
38860;DHT22;24609;48.316;16.174;2022-10-22T10:01:43;12.70;99.90
38860;DHT22;24609;48.316;16.174;2022-10-22T10:04:11;12.70;99.90
38860;DHT22;24609;48.316;16.174;2022-10-22T10:06:39;12.70;99.90
38860;DHT22;24609;48.316;16.174;2022-10-22T10:09:15;12.60;99.90
38860;DHT22;24609;48.316;16.174;2022-10-22T10:17:11;12.60;99.90
38860;DHT22;24609;48.316;16.174;2022-10-22T10:19:47;12.50;99.90
38860;DHT22;24609;48.316;16.174;2022-10-22T10:22:48;12.60;99.90
38860;DHT22;24609;48.316;16.174;2022-10-22T10:37:17;13.30;99.90
38860;DHT22;24609;48.316;16.174;2022-10-22T10:40:20;13.50;99.90
38860;DHT22;24609;48.316;16.174;2022-10-22T10:42:55;13.80;99.90
38860;DHT22;24609;48.316;16.174;2022-10-22T10:45:43;13.70;99.90
38860;DHT22;24609;48.316;16.174;2022-10-22T10:59:18;15.00;99.90
38860;DHT22;24609;48.316;16.174;2022-10-22T11:07:30;15.30;99.90
38860;DHT22;24609;48.316;16.174;2022-10-22T11:10:04;15.40;99.90
38860;DHT22;24609;48.316;16.174;2022-10-22T11:12:41;15.40;99.90
38860;DHT22;24609;48.316;16.174;2022-10-22T11:15:46;15.20;99.90
38860;DHT22;24609;48.316;16.174;2022-10-22T11:18:23;15.20;99.90
38860;DHT22;24609;48.316;16.174;2022-10-22T11:21:06;15.50;99.90
38860;DHT22;24609;48.316;16.174;2022-10-22T11:23:35;16.00;99.90
38860;DHT22;24609;48.316;16.174;2022-10-22T11:26:04;16.20;99.90
38860;DHT22;24609;48.316;16.174;2022-10-22T11:28:46;16.30;99.90
38860;DHT22;24609;48.316;16.174;2022-10-22T11:31:15;16.30;99.90
38860;DHT22;24609;48.316;16.174;2022-10-22T11:34:05;16.30;99.90
38860;DHT22;24609;48.316;16.174;2022-10-22T11:36:36;16.30;99.90
38860;DHT22;24609;48.316;16.174;2022-10-22T11:39:03;16.10;99.90
38860;DHT22;24609;48.316;16.174;2022-10-22T11:41:32;16.10;99.90
38860;DHT22;24609;48.316;16.174;2022-10-22T11:44:08;15.90;99.90
38860;DHT22;24609;48.316;16.174;2022-10-22T11:46:44;15.80;99.90
38860;DHT22;24609;48.316;16.174;2022-10-22T11:51:41;15.70;99.90
38860;DHT22;24609;48.316;16.174;2022-10-22T12:02:29;15.60;99.90
38860;DHT22;24609;48.316;16.174;2022-10-22T12:08:15;15.50;99.90
38860;DHT22;24609;48.316;16.174;2022-10-22T12:11:12;15.40;99.90
38860;DHT22;24609;48.316;16.174;2022-10-22T12:19:57;15.60;99.90
38860;DHT22;24609;48.316;16.174;2022-10-22T12:24:40;15.70;99.90
38860;DHT22;24609;48.316;16.174;2022-10-22T12:27:31;15.70;99.90
38860;DHT22;24609;48.316;16.174;2022-10-22T12:30:00;15.60;99.90
38860;DHT22;24609;48.316;16.174;2022-10-22T12:32:34;15.60;99.90
38860;DHT22;24609;48.316;16.174;2022-10-22T12:35:07;15.50;99.90
38860;DHT22;24609;48.316;16.174;2022-10-22T12:37:36;15.60;99.90
38860;DHT22;24609;48.316;16.174;2022-10-22T12:40:19;15.50;99.90
38860;DHT22;24609;48.316;16.174;2022-10-22T12:42:59;15.40;99.90
38860;DHT22;24609;48.316;16.174;2022-10-22T12:45:30;15.30;99.90
38860;DHT22;24609;48.316;16.174;2022-10-22T12:47:58;15.30;99.90
38860;DHT22;24609;48.316;16.174;2022-10-22T12:50:31;15.30;99.90
38860;DHT22;24609;48.316;16.174;2022-10-22T12:52:58;15.20;99.90
38860;DHT22;24609;48.316;16.174;2022-10-22T12:55:25;15.10;99.90
38860;DHT22;24609;48.316;16.174;2022-10-22T12:57:51;15.10;99.90
38860;DHT22;24609;48.316;16.174;2022-10-22T13:00:35;15.00;99.90
38860;DHT22;24609;48.316;16.174;2022-10-22T13:03:05;15.00;99.90
38860;DHT22;24609;48.316;16.174;2022-10-22T13:05:32;14.90;99.90
38860;DHT22;24609;48.316;16.174;2022-10-22T13:08:16;14.90;99.90
38860;DHT22;24609;48.316;16.174;2022-10-22T13:10:49;14.90;99.90
38860;DHT22;24609;48.316;16.174;2022-10-22T13:13:41;14.90;99.90
38860;DHT22;24609;48.316;16.174;2022-10-22T13:16:23;14.90;99.90
38860;DHT22;24609;48.316;16.174;2022-10-22T13:18:51;14.90;99.90
38860;DHT22;24609;48.316;16.174;2022-10-22T13:21:36;14.90;99.90
38860;DHT22;24609;48.316;16.174;2022-10-22T13:24:19;14.90;99.90
38860;DHT22;24609;48.316;16.174;2022-10-22T13:26:48;14.90;99.90
38860;DHT22;24609;48.316;16.174;2022-10-22T13:29:16;14.90;99.90
38860;DHT22;24609;48.316;16.174;2022-10-22T13:31:48;14.90;99.90
38860;DHT22;24609;48.316;16.174;2022-10-22T13:34:20;14.90;99.90
38860;DHT22;24609;48.316;16.174;2022-10-22T13:36:48;14.90;99.90
38860;DHT22;24609;48.316;16.174;2022-10-22T13:39:22;14.90;99.90
38860;DHT22;24609;48.316;16.174;2022-10-22T13:41:49;14.90;99.90
38860;DHT22;24609;48.316;16.174;2022-10-22T13:44:16;14.80;99.90
38860;DHT22;24609;48.316;16.174;2022-10-22T13:46:43;14.80;99.90
38860;DHT22;24609;48.316;16.174;2022-10-22T13:49:15;14.70;99.90
38860;DHT22;24609;48.316;16.174;2022-10-22T13:51:41;14.80;99.90
38860;DHT22;24609;48.316;16.174;2022-10-22T13:54:21;14.70;99.90
38860;DHT22;24609;48.316;16.174;2022-10-22T13:56:48;14.80;99.90
38860;DHT22;24609;48.316;16.174;2022-10-22T13:59:14;14.80;99.90
38860;DHT22;24609;48.316;16.174;2022-10-22T14:01:40;14.80;99.90
38860;DHT22;24609;48.316;16.174;2022-10-22T14:04:09;14.80;99.90
38860;DHT22;24609;48.316;16.174;2022-10-22T14:06:36;14.80;99.90
38860;DHT22;24609;48.316;16.174;2022-10-22T14:09:04;14.70;99.90
38860;DHT22;24609;48.316;16.174;2022-10-22T14:11:30;14.70;99.90
38860;DHT22;24609;48.316;16.174;2022-10-22T14:13:57;14.60;99.90
38860;DHT22;24609;48.316;16.174;2022-10-22T14:16:24;14.60;99.90
38860;DHT22;24609;48.316;16.174;2022-10-22T14:18:51;14.60;99.90
38860;DHT22;24609;48.316;16.174;2022-10-22T14:21:18;14.60;99.90
38860;DHT22;24609;48.316;16.174;2022-10-22T14:23:45;14.50;99.90
38860;DHT22;24609;48.316;16.174;2022-10-22T14:26:22;14.50;99.90
38860;DHT22;24609;48.316;16.174;2022-10-22T14:28:48;14.50;99.90
38860;DHT22;24609;48.316;16.174;2022-10-22T14:31:13;14.50;99.90
38860;DHT22;24609;48.316;16.174;2022-10-22T14:33:39;14.50;99.90
38860;DHT22;24609;48.316;16.174;2022-10-22T14:36:05;14.50;99.90
38860;DHT22;24609;48.316;16.174;2022-10-22T14:38:31;14.50;99.90
38860;DHT22;24609;48.316;16.174;2022-10-22T14:40:58;14.40;99.90
38860;DHT22;24609;48.316;16.174;2022-10-22T14:43:26;14.40;99.90
38860;DHT22;24609;48.316;16.174;2022-10-22T14:45:52;14.30;99.90
38860;DHT22;24609;48.316;16.174;2022-10-22T14:48:18;14.30;99.90
38860;DHT22;24609;48.316;16.174;2022-10-22T14:50:45;14.30;99.90
38860;DHT22;24609;48.316;16.174;2022-10-22T14:53:12;14.30;99.90
38860;DHT22;24609;48.316;16.174;2022-10-22T14:55:39;14.30;99.90
38860;DHT22;24609;48.316;16.174;2022-10-22T14:58:05;14.20;99.90
38860;DHT22;24609;48.316;16.174;2022-10-22T15:00:31;14.20;99.90
38860;DHT22;24609;48.316;16.174;2022-10-22T15:02:59;14.20;99.90
38860;DHT22;24609;48.316;16.174;2022-10-22T15:05:25;14.20;99.90
38860;DHT22;24609;48.316;16.174;2022-10-22T15:07:50;14.20;99.90
38860;DHT22;24609;48.316;16.174;2022-10-22T15:10:16;14.10;99.90
38860;DHT22;24609;48.316;16.174;2022-10-22T15:12:42;14.10;99.90
38860;DHT22;24609;48.316;16.174;2022-10-22T15:15:08;14.10;99.90
38860;DHT22;24609;48.316;16.174;2022-10-22T15:17:33;14.20;99.90
38860;DHT22;24609;48.316;16.174;2022-10-22T15:19:59;14.10;99.90
38860;DHT22;24609;48.316;16.174;2022-10-22T15:22:29;14.10;99.90
38860;DHT22;24609;48.316;16.174;2022-10-22T15:24:56;14.10;99.90
38860;DHT22;24609;48.316;16.174;2022-10-22T15:27:22;14.10;99.90
38860;DHT22;24609;48.316;16.174;2022-10-22T15:29:48;14.10;99.90
38860;DHT22;24609;48.316;16.174;2022-10-22T15:32:13;14.10;99.90
38860;DHT22;24609;48.316;16.174;2022-10-22T15:34:39;14.10;99.90
38860;DHT22;24609;48.316;16.174;2022-10-22T15:37:07;14.10;99.90
38860;DHT22;24609;48.316;16.174;2022-10-22T15:39:34;14.10;99.90
38860;DHT22;24609;48.316;16.174;2022-10-22T15:42:00;14.00;99.90
38860;DHT22;24609;48.316;16.174;2022-10-22T15:44:29;14.00;99.90
38860;DHT22;24609;48.316;16.174;2022-10-22T15:46:55;13.90;99.90
38860;DHT22;24609;48.316;16.174;2022-10-22T15:49:22;13.90;99.90
38860;DHT22;24609;48.316;16.174;2022-10-22T15:51:47;13.80;99.90
38860;DHT22;24609;48.316;16.174;2022-10-22T15:54:15;13.80;99.90
38860;DHT22;24609;48.316;16.174;2022-10-22T15:56:41;13.90;99.90
38860;DHT22;24609;48.316;16.174;2022-10-22T15:59:09;13.80;99.90
38860;DHT22;24609;48.316;16.174;2022-10-22T16:01:35;13.80;99.90
38860;DHT22;24609;48.316;16.174;2022-10-22T16:04:02;13.90;99.90
38860;DHT22;24609;48.316;16.174;2022-10-22T16:06:36;13.80;99.90
38860;DHT22;24609;48.316;16.174;2022-10-22T16:09:05;13.80;99.90
38860;DHT22;24609;48.316;16.174;2022-10-22T16:11:31;13.70;99.90
38860;DHT22;24609;48.316;16.174;2022-10-22T16:13:59;13.60;99.90
38860;DHT22;24609;48.316;16.174;2022-10-22T16:16:27;13.50;99.90
38860;DHT22;24609;48.316;16.174;2022-10-22T16:18:53;13.50;99.90
38860;DHT22;24609;48.316;16.174;2022-10-22T16:21:21;13.40;99.90
38860;DHT22;24609;48.316;16.174;2022-10-22T16:23:47;13.30;99.90
38860;DHT22;24609;48.316;16.174;2022-10-22T16:26:13;13.20;99.90
38860;DHT22;24609;48.316;16.174;2022-10-22T16:28:40;13.10;99.90
38860;DHT22;24609;48.316;16.174;2022-10-22T16:31:08;13.10;99.90
38860;DHT22;24609;48.316;16.174;2022-10-22T16:33:35;13.10;99.90
38860;DHT22;24609;48.316;16.174;2022-10-22T16:36:01;13.00;99.90
38860;DHT22;24609;48.316;16.174;2022-10-22T16:38:27;13.10;99.90
38860;DHT22;24609;48.316;16.174;2022-10-22T16:40:53;13.00;99.90
38860;DHT22;24609;48.316;16.174;2022-10-22T16:43:19;13.00;99.90
38860;DHT22;24609;48.316;16.174;2022-10-22T16:45:48;12.80;99.90
38860;DHT22;24609;48.316;16.174;2022-10-22T16:48:17;12.60;99.90
38860;DHT22;24609;48.316;16.174;2022-10-22T16:50:43;12.50;99.90
38860;DHT22;24609;48.316;16.174;2022-10-22T16:53:10;12.50;99.90
38860;DHT22;24609;48.316;16.174;2022-10-22T16:55:36;12.40;99.90
38860;DHT22;24609;48.316;16.174;2022-10-22T16:58:03;12.30;99.90
38860;DHT22;24609;48.316;16.174;2022-10-22T17:00:28;12.10;99.90
38860;DHT22;24609;48.316;16.174;2022-10-22T17:02:55;12.10;99.90
38860;DHT22;24609;48.316;16.174;2022-10-22T17:05:21;12.10;99.90
38860;DHT22;24609;48.316;16.174;2022-10-22T17:07:47;12.10;99.90
38860;DHT22;24609;48.316;16.174;2022-10-22T17:10:13;12.10;99.90
38860;DHT22;24609;48.316;16.174;2022-10-22T17:12:39;12.20;99.90
38860;DHT22;24609;48.316;16.174;2022-10-22T17:15:05;12.20;99.90
38860;DHT22;24609;48.316;16.174;2022-10-22T17:17:32;12.20;99.90
38860;DHT22;24609;48.316;16.174;2022-10-22T17:19:57;12.20;99.90
38860;DHT22;24609;48.316;16.174;2022-10-22T17:22:23;12.20;99.90